sensor_id;sensor_type;location;lat;lon;timestamp;temperature;humidity
10042;DHT22;5061;49.068;12.058;2023-06-10T00:01:02;18.40;94.70
10042;DHT22;5061;49.068;12.058;2023-06-10T00:04:23;18.40;94.80
10042;DHT22;5061;49.068;12.058;2023-06-10T00:07:45;18.30;94.90
10042;DHT22;5061;49.068;12.058;2023-06-10T00:11:08;18.30;94.90
10042;DHT22;5061;49.068;12.058;2023-06-10T00:14:35;18.20;95.20
10042;DHT22;5061;49.068;12.058;2023-06-10T00:17:57;18.10;95.30
10042;DHT22;5061;49.068;12.058;2023-06-10T00:21:18;18.10;95.40
10042;DHT22;5061;49.068;12.058;2023-06-10T00:24:39;18.00;95.40
10042;DHT22;5061;49.068;12.058;2023-06-10T00:28:01;17.90;95.50
10042;DHT22;5061;49.068;12.058;2023-06-10T00:31:21;17.90;95.80
10042;DHT22;5061;49.068;12.058;2023-06-10T00:34:43;17.80;95.90
10042;DHT22;5061;49.068;12.058;2023-06-10T00:38:03;17.80;96.20
10042;DHT22;5061;49.068;12.058;2023-06-10T00:41:25;17.70;96.10
10042;DHT22;5061;49.068;12.058;2023-06-10T00:44:49;17.70;96.30
10042;DHT22;5061;49.068;12.058;2023-06-10T00:48:10;17.70;96.30
10042;DHT22;5061;49.068;12.058;2023-06-10T00:51:31;17.60;96.60
10042;DHT22;5061;49.068;12.058;2023-06-10T00:54:52;17.60;96.70
10042;DHT22;5061;49.068;12.058;2023-06-10T00:58:13;17.60;96.80
10042;DHT22;5061;49.068;12.058;2023-06-10T01:01:36;17.50;96.80
10042;DHT22;5061;49.068;12.058;2023-06-10T01:04:59;17.50;97.10
10042;DHT22;5061;49.068;12.058;2023-06-10T01:08:28;17.40;97.20
10042;DHT22;5061;49.068;12.058;2023-06-10T01:12:05;17.40;97.30
10042;DHT22;5061;49.068;12.058;2023-06-10T01:15:30;17.30;97.40
10042;DHT22;5061;49.068;12.058;2023-06-10T01:18:52;17.30;97.60
10042;DHT22;5061;49.068;12.058;2023-06-10T01:22:13;17.20;97.80
10042;DHT22;5061;49.068;12.058;2023-06-10T01:25:41;17.20;97.90
10042;DHT22;5061;49.068;12.058;2023-06-10T01:29:21;17.10;98.10
10042;DHT22;5061;49.068;12.058;2023-06-10T01:32:54;17.10;98.40
10042;DHT22;5061;49.068;12.058;2023-06-10T01:36:16;17.10;98.50
10042;DHT22;5061;49.068;12.058;2023-06-10T01:39:39;17.00;98.80
10042;DHT22;5061;49.068;12.058;2023-06-10T01:43:00;17.00;98.60
10042;DHT22;5061;49.068;12.058;2023-06-10T01:46:21;17.00;98.80
10042;DHT22;5061;49.068;12.058;2023-06-10T01:49:42;17.00;99.00
10042;DHT22;5061;49.068;12.058;2023-06-10T01:53:04;17.00;99.00
10042;DHT22;5061;49.068;12.058;2023-06-10T01:56:26;16.90;99.10
10042;DHT22;5061;49.068;12.058;2023-06-10T01:59:46;16.90;99.00
10042;DHT22;5061;49.068;12.058;2023-06-10T02:03:07;16.90;99.20
10042;DHT22;5061;49.068;12.058;2023-06-10T02:06:29;16.80;99.20
10042;DHT22;5061;49.068;12.058;2023-06-10T02:09:49;16.80;99.50
10042;DHT22;5061;49.068;12.058;2023-06-10T02:13:10;16.80;99.80
10042;DHT22;5061;49.068;12.058;2023-06-10T02:16:31;16.70;99.90
10042;DHT22;5061;49.068;12.058;2023-06-10T02:19:53;16.80;99.90
10042;DHT22;5061;49.068;12.058;2023-06-10T02:23:14;16.80;99.90
10042;DHT22;5061;49.068;12.058;2023-06-10T02:26:35;16.80;99.90
10042;DHT22;5061;49.068;12.058;2023-06-10T02:29:57;16.80;99.90
10042;DHT22;5061;49.068;12.058;2023-06-10T02:33:21;16.70;99.90
10042;DHT22;5061;49.068;12.058;2023-06-10T02:36:43;16.60;99.90
10042;DHT22;5061;49.068;12.058;2023-06-10T02:40:05;16.60;99.90
10042;DHT22;5061;49.068;12.058;2023-06-10T02:43:27;16.60;99.90
10042;DHT22;5061;49.068;12.058;2023-06-10T02:46:48;16.50;99.90
10042;DHT22;5061;49.068;12.058;2023-06-10T02:50:09;16.50;99.90
10042;DHT22;5061;49.068;12.058;2023-06-10T02:53:30;16.50;99.90
10042;DHT22;5061;49.068;12.058;2023-06-10T02:56:52;16.40;99.90
10042;DHT22;5061;49.068;12.058;2023-06-10T03:00:14;16.50;99.90
10042;DHT22;5061;49.068;12.058;2023-06-10T03:03:35;16.40;99.90
10042;DHT22;5061;49.068;12.058;2023-06-10T03:06:57;16.40;99.90
10042;DHT22;5061;49.068;12.058;2023-06-10T03:10:18;16.50;99.90
10042;DHT22;5061;49.068;12.058;2023-06-10T03:13:39;16.40;99.90
10042;DHT22;5061;49.068;12.058;2023-06-10T03:17:01;16.40;99.90
10042;DHT22;5061;49.068;12.058;2023-06-10T03:20:26;16.30;99.90
10042;DHT22;5061;49.068;12.058;2023-06-10T03:23:48;16.30;99.90
10042;DHT22;5061;49.068;12.058;2023-06-10T03:27:10;16.30;99.90
10042;DHT22;5061;49.068;12.058;2023-06-10T03:30:37;16.20;99.90
10042;DHT22;5061;49.068;12.058;2023-06-10T03:33:59;16.20;99.90
10042;DHT22;5061;49.068;12.058;2023-06-10T03:37:20;16.20;99.90
10042;DHT22;5061;49.068;12.058;2023-06-10T03:40:41;16.10;99.90
10042;DHT22;5061;49.068;12.058;2023-06-10T03:44:02;16.20;99.90
10042;DHT22;5061;49.068;12.058;2023-06-10T03:47:24;16.10;99.90
10042;DHT22;5061;49.068;12.058;2023-06-10T03:50:48;16.10;99.90
10042;DHT22;5061;49.068;12.058;2023-06-10T03:54:12;16.20;99.90
10042;DHT22;5061;49.068;12.058;2023-06-10T03:57:34;16.20;99.90
10042;DHT22;5061;49.068;12.058;2023-06-10T04:00:55;16.20;99.90
10042;DHT22;5061;49.068;12.058;2023-06-10T04:04:16;16.20;99.90
10042;DHT22;5061;49.068;12.058;2023-06-10T04:07:37;16.20;99.90
10042;DHT22;5061;49.068;12.058;2023-06-10T04:11:01;16.20;99.90
10042;DHT22;5061;49.068;12.058;2023-06-10T04:14:22;16.30;99.90
10042;DHT22;5061;49.068;12.058;2023-06-10T04:17:43;16.30;99.90
10042;DHT22;5061;49.068;12.058;2023-06-10T04:21:04;16.30;99.90
10042;DHT22;5061;49.068;12.058;2023-06-10T04:24:25;16.40;99.90
10042;DHT22;5061;49.068;12.058;2023-06-10T04:27:47;16.40;99.90
10042;DHT22;5061;49.068;12.058;2023-06-10T04:31:08;16.40;99.90
10042;DHT22;5061;49.068;12.058;2023-06-10T04:34:29;16.50;99.90
10042;DHT22;5061;49.068;12.058;2023-06-10T04:37:50;16.50;99.90
10042;DHT22;5061;49.068;12.058;2023-06-10T04:41:11;16.60;99.90
10042;DHT22;5061;49.068;12.058;2023-06-10T04:44:32;16.70;99.90
10042;DHT22;5061;49.068;12.058;2023-06-10T05:44:21;18.20;99.90
10042;DHT22;5061;49.068;12.058;2023-06-10T05:47:42;18.20;99.90
10042;DHT22;5061;49.068;12.058;2023-06-10T05:51:03;18.30;99.90
10042;DHT22;5061;49.068;12.058;2023-06-10T05:54:25;18.40;99.90
10042;DHT22;5061;49.068;12.058;2023-06-10T05:57:46;18.60;99.90
10042;DHT22;5061;49.068;12.058;2023-06-10T06:01:07;18.70;99.90
10042;DHT22;5061;49.068;12.058;2023-06-10T06:04:28;18.80;99.90
10042;DHT22;5061;49.068;12.058;2023-06-10T06:07:50;18.80;99.90
10042;DHT22;5061;49.068;12.058;2023-06-10T06:11:11;18.90;99.90
10042;DHT22;5061;49.068;12.058;2023-06-10T06:14:32;19.00;99.90
10042;DHT22;5061;49.068;12.058;2023-06-10T06:17:53;19.10;99.90
10042;DHT22;5061;49.068;12.058;2023-06-10T06:21:17;19.10;99.90
10042;DHT22;5061;49.068;12.058;2023-06-10T06:24:38;19.10;99.90
10042;DHT22;5061;49.068;12.058;2023-06-10T06:27:59;19.10;99.90
10042;DHT22;5061;49.068;12.058;2023-06-10T06:31:20;19.20;99.90
10042;DHT22;5061;49.068;12.058;2023-06-10T06:34:41;19.20;99.90
10042;DHT22;5061;49.068;12.058;2023-06-10T06:38:02;19.30;99.90
10042;DHT22;5061;49.068;12.058;2023-06-10T06:41:27;19.30;99.90
10042;DHT22;5061;49.068;12.058;2023-06-10T06:44:48;19.30;99.90
10042;DHT22;5061;49.068;12.058;2023-06-10T06:48:15;19.40;99.90
10042;DHT22;5061;49.068;12.058;2023-06-10T06:51:36;19.40;99.90
10042;DHT22;5061;49.068;12.058;2023-06-10T06:55:01;19.40;99.90
10042;DHT22;5061;49.068;12.058;2023-06-10T06:58:22;19.50;99.90
10042;DHT22;5061;49.068;12.058;2023-06-10T07:01:43;19.50;99.90
10042;DHT22;5061;49.068;12.058;2023-06-10T07:05:05;19.50;99.90
10042;DHT22;5061;49.068;12.058;2023-06-10T07:08:26;19.60;99.90
10042;DHT22;5061;49.068;12.058;2023-06-10T07:11:47;19.60;99.90
10042;DHT22;5061;49.068;12.058;2023-06-10T07:15:08;19.60;99.90
10042;DHT22;5061;49.068;12.058;2023-06-10T07:18:29;19.70;99.90
10042;DHT22;5061;49.068;12.058;2023-06-10T07:21:51;19.70;99.90
10042;DHT22;5061;49.068;12.058;2023-06-10T07:25:12;19.70;99.90
10042;DHT22;5061;49.068;12.058;2023-06-10T07:28:33;19.80;99.90
10042;DHT22;5061;49.068;12.058;2023-06-10T07:31:54;19.90;99.90
10042;DHT22;5061;49.068;12.058;2023-06-10T07:35:17;19.90;99.90
10042;DHT22;5061;49.068;12.058;2023-06-10T07:38:42;20.00;99.90
10042;DHT22;5061;49.068;12.058;2023-06-10T07:42:03;20.10;99.90
10042;DHT22;5061;49.068;12.058;2023-06-10T07:45:24;20.20;99.90
10042;DHT22;5061;49.068;12.058;2023-06-10T07:48:46;20.30;99.90
10042;DHT22;5061;49.068;12.058;2023-06-10T07:52:07;20.30;99.90
10042;DHT22;5061;49.068;12.058;2023-06-10T07:55:29;20.40;99.90
10042;DHT22;5061;49.068;12.058;2023-06-10T07:58:50;20.50;99.90
10042;DHT22;5061;49.068;12.058;2023-06-10T08:02:14;20.60;99.90
10042;DHT22;5061;49.068;12.058;2023-06-10T08:05:35;20.70;99.90
10042;DHT22;5061;49.068;12.058;2023-06-10T08:08:58;20.70;99.90
10042;DHT22;5061;49.068;12.058;2023-06-10T08:12:25;20.80;99.90
10042;DHT22;5061;49.068;12.058;2023-06-10T08:15:48;20.90;99.90
10042;DHT22;5061;49.068;12.058;2023-06-10T08:19:10;21.00;99.90
10042;DHT22;5061;49.068;12.058;2023-06-10T08:22:31;21.10;99.90
10042;DHT22;5061;49.068;12.058;2023-06-10T08:25:55;21.20;99.90
10042;DHT22;5061;49.068;12.058;2023-06-10T08:29:16;21.30;99.90
10042;DHT22;5061;49.068;12.058;2023-06-10T08:32:37;21.40;99.90
10042;DHT22;5061;49.068;12.058;2023-06-10T08:35:58;21.50;99.90
10042;DHT22;5061;49.068;12.058;2023-06-10T08:39:19;21.60;99.90
10042;DHT22;5061;49.068;12.058;2023-06-10T08:42:47;21.70;99.90
10042;DHT22;5061;49.068;12.058;2023-06-10T08:46:11;21.80;99.90
10042;DHT22;5061;49.068;12.058;2023-06-10T08:49:38;21.90;99.90
10042;DHT22;5061;49.068;12.058;2023-06-10T08:53:07;22.00;99.90
10042;DHT22;5061;49.068;12.058;2023-06-10T08:56:39;22.00;99.90
10042;DHT22;5061;49.068;12.058;2023-06-10T09:00:06;22.00;99.90
10042;DHT22;5061;49.068;12.058;2023-06-10T09:03:29;22.00;99.90
10042;DHT22;5061;49.068;12.058;2023-06-10T09:06:53;22.20;99.90
10042;DHT22;5061;49.068;12.058;2023-06-10T09:10:20;22.30;99.80
10042;DHT22;5061;49.068;12.058;2023-06-10T09:13:42;22.30;99.70
10042;DHT22;5061;49.068;12.058;2023-06-10T09:17:05;22.40;99.90
10042;DHT22;5061;49.068;12.058;2023-06-10T09:20:29;22.40;99.90
10042;DHT22;5061;49.068;12.058;2023-06-10T09:23:51;22.50;99.90
10042;DHT22;5061;49.068;12.058;2023-06-10T09:27:12;22.70;99.90
10042;DHT22;5061;49.068;12.058;2023-06-10T09:30:34;22.80;99.90
10042;DHT22;5061;49.068;12.058;2023-06-10T09:34:12;22.90;99.90
10042;DHT22;5061;49.068;12.058;2023-06-10T09:37:38;23.00;99.90
10042;DHT22;5061;49.068;12.058;2023-06-10T09:41:01;23.00;99.90
10042;DHT22;5061;49.068;12.058;2023-06-10T09:44:31;23.10;99.90
10042;DHT22;5061;49.068;12.058;2023-06-10T09:47:53;23.20;99.90
10042;DHT22;5061;49.068;12.058;2023-06-10T09:51:16;23.20;99.90
10042;DHT22;5061;49.068;12.058;2023-06-10T09:54:46;23.40;99.90
10042;DHT22;5061;49.068;12.058;2023-06-10T09:58:08;23.40;99.90
10042;DHT22;5061;49.068;12.058;2023-06-10T10:01:31;23.50;99.90
10042;DHT22;5061;49.068;12.058;2023-06-10T10:05:02;23.60;99.90
10042;DHT22;5061;49.068;12.058;2023-06-10T10:08:32;23.70;99.90
10042;DHT22;5061;49.068;12.058;2023-06-10T10:12:05;23.80;99.90
10042;DHT22;5061;49.068;12.058;2023-06-10T10:15:34;23.80;99.90
10042;DHT22;5061;49.068;12.058;2023-06-10T10:19:11;23.70;99.90
10042;DHT22;5061;49.068;12.058;2023-06-10T10:22:43;23.70;99.90
10042;DHT22;5061;49.068;12.058;2023-06-10T10:26:07;23.70;99.90
10042;DHT22;5061;49.068;12.058;2023-06-10T10:29:38;23.70;99.90
10042;DHT22;5061;49.068;12.058;2023-06-10T10:36:36;23.70;99.90
10042;DHT22;5061;49.068;12.058;2023-06-10T10:40:28;23.80;99.90
10042;DHT22;5061;49.068;12.058;2023-06-10T10:43:53;23.90;99.90
10042;DHT22;5061;49.068;12.058;2023-06-10T10:47:16;23.90;99.90
10042;DHT22;5061;49.068;12.058;2023-06-10T10:50:43;23.80;99.90
10042;DHT22;5061;49.068;12.058;2023-06-10T10:54:13;23.70;99.90
10042;DHT22;5061;49.068;12.058;2023-06-10T10:57:41;23.60;99.90
10042;DHT22;5061;49.068;12.058;2023-06-10T11:01:22;23.50;99.90
10042;DHT22;5061;49.068;12.058;2023-06-10T11:04:48;23.50;99.90
10042;DHT22;5061;49.068;12.058;2023-06-10T11:08:09;23.50;99.90
10042;DHT22;5061;49.068;12.058;2023-06-10T11:11:31;23.40;99.90
10042;DHT22;5061;49.068;12.058;2023-06-10T11:14:58;23.40;99.90
10042;DHT22;5061;49.068;12.058;2023-06-10T11:18:34;23.40;99.90
10042;DHT22;5061;49.068;12.058;2023-06-10T11:22:01;23.40;99.90
10042;DHT22;5061;49.068;12.058;2023-06-10T11:25:39;23.30;99.90
10042;DHT22;5061;49.068;12.058;2023-06-10T11:29:07;23.30;99.90
10042;DHT22;5061;49.068;12.058;2023-06-10T11:32:39;23.40;99.90
10042;DHT22;5061;49.068;12.058;2023-06-10T11:36:07;23.40;99.90
10042;DHT22;5061;49.068;12.058;2023-06-10T11:39:34;23.50;99.90
10042;DHT22;5061;49.068;12.058;2023-06-10T11:43:01;23.50;99.90
10042;DHT22;5061;49.068;12.058;2023-06-10T11:46:24;23.70;99.90
10042;DHT22;5061;49.068;12.058;2023-06-10T11:49:58;23.90;99.90
10042;DHT22;5061;49.068;12.058;2023-06-10T11:53:23;24.00;99.90
10042;DHT22;5061;49.068;12.058;2023-06-10T11:56:46;24.10;99.90
10042;DHT22;5061;49.068;12.058;2023-06-10T12:00:09;24.20;99.90
10042;DHT22;5061;49.068;12.058;2023-06-10T12:03:39;24.30;99.90
10042;DHT22;5061;49.068;12.058;2023-06-10T12:07:01;24.50;99.90
10042;DHT22;5061;49.068;12.058;2023-06-10T12:10:22;24.50;99.90
10042;DHT22;5061;49.068;12.058;2023-06-10T12:13:48;24.50;99.90
10042;DHT22;5061;49.068;12.058;2023-06-10T12:17:09;24.40;99.90
10042;DHT22;5061;49.068;12.058;2023-06-10T12:20:32;24.40;99.90
10042;DHT22;5061;49.068;12.058;2023-06-10T12:27:25;24.40;99.90
10042;DHT22;5061;49.068;12.058;2023-06-10T12:30:46;24.40;99.90
10042;DHT22;5061;49.068;12.058;2023-06-10T12:34:10;24.30;99.90
10042;DHT22;5061;49.068;12.058;2023-06-10T12:37:34;24.10;99.90
10042;DHT22;5061;49.068;12.058;2023-06-10T12:41:02;23.90;99.90
10042;DHT22;5061;49.068;12.058;2023-06-10T12:44:36;23.70;99.90
10042;DHT22;5061;49.068;12.058;2023-06-10T12:48:20;23.60;99.90
10042;DHT22;5061;49.068;12.058;2023-06-10T12:51:41;23.50;99.90
10042;DHT22;5061;49.068;12.058;2023-06-10T12:55:03;23.50;99.90
10042;DHT22;5061;49.068;12.058;2023-06-10T12:58:24;23.70;99.90
10042;DHT22;5061;49.068;12.058;2023-06-10T13:01:52;24.10;99.90
10042;DHT22;5061;49.068;12.058;2023-06-10T13:05:18;24.50;99.90
10042;DHT22;5061;49.068;12.058;2023-06-10T13:08:39;24.50;99.90
10042;DHT22;5061;49.068;12.058;2023-06-10T13:12:01;24.50;99.90
10042;DHT22;5061;49.068;12.058;2023-06-10T13:15:21;24.50;99.90
10042;DHT22;5061;49.068;12.058;2023-06-10T13:18:42;24.60;99.90
10042;DHT22;5061;49.068;12.058;2023-06-10T13:22:04;25.00;99.90
10042;DHT22;5061;49.068;12.058;2023-06-10T13:25:25;25.50;99.90
10042;DHT22;5061;49.068;12.058;2023-06-10T13:28:46;25.80;99.90
10042;DHT22;5061;49.068;12.058;2023-06-10T13:32:07;25.90;99.90
10042;DHT22;5061;49.068;12.058;2023-06-10T13:35:28;26.00;99.90
10042;DHT22;5061;49.068;12.058;2023-06-10T13:38:49;25.90;99.90
10042;DHT22;5061;49.068;12.058;2023-06-10T13:42:11;25.80;99.90
10042;DHT22;5061;49.068;12.058;2023-06-10T13:45:32;25.70;99.90
10042;DHT22;5061;49.068;12.058;2023-06-10T13:48:53;25.60;99.90
10042;DHT22;5061;49.068;12.058;2023-06-10T13:52:15;25.50;99.90
10042;DHT22;5061;49.068;12.058;2023-06-10T13:55:36;25.40;99.90
10042;DHT22;5061;49.068;12.058;2023-06-10T13:58:57;25.30;99.90
10042;DHT22;5061;49.068;12.058;2023-06-10T14:02:18;25.10;99.90
10042;DHT22;5061;49.068;12.058;2023-06-10T14:05:39;25.10;99.90
10042;DHT22;5061;49.068;12.058;2023-06-10T14:09:01;25.00;99.90
10042;DHT22;5061;49.068;12.058;2023-06-10T14:12:22;24.90;99.90
10042;DHT22;5061;49.068;12.058;2023-06-10T14:15:44;24.90;99.90
10042;DHT22;5061;49.068;12.058;2023-06-10T14:19:07;24.90;99.90
10042;DHT22;5061;49.068;12.058;2023-06-10T14:22:28;25.00;99.90
10042;DHT22;5061;49.068;12.058;2023-06-10T14:25:49;25.20;99.90
10042;DHT22;5061;49.068;12.058;2023-06-10T14:29:10;25.30;99.90
10042;DHT22;5061;49.068;12.058;2023-06-10T14:32:34;25.30;99.90
10042;DHT22;5061;49.068;12.058;2023-06-10T14:35:58;25.40;99.90
10042;DHT22;5061;49.068;12.058;2023-06-10T14:39:20;25.50;99.90
10042;DHT22;5061;49.068;12.058;2023-06-10T14:42:41;25.50;99.90
10042;DHT22;5061;49.068;12.058;2023-06-10T14:46:02;25.30;99.90
10042;DHT22;5061;49.068;12.058;2023-06-10T14:49:24;25.10;99.90
10042;DHT22;5061;49.068;12.058;2023-06-10T14:52:45;24.90;99.90
10042;DHT22;5061;49.068;12.058;2023-06-10T14:56:06;24.80;99.90
10042;DHT22;5061;49.068;12.058;2023-06-10T14:59:27;24.70;99.90
10042;DHT22;5061;49.068;12.058;2023-06-10T15:02:49;24.70;99.90
10042;DHT22;5061;49.068;12.058;2023-06-10T15:06:09;24.90;99.90
10042;DHT22;5061;49.068;12.058;2023-06-10T15:09:30;25.20;99.90
10042;DHT22;5061;49.068;12.058;2023-06-10T15:12:52;25.40;99.90
10042;DHT22;5061;49.068;12.058;2023-06-10T15:16:16;25.60;99.90
10042;DHT22;5061;49.068;12.058;2023-06-10T15:19:37;25.80;99.90
10042;DHT22;5061;49.068;12.058;2023-06-10T15:22:59;25.90;99.90
10042;DHT22;5061;49.068;12.058;2023-06-10T15:26:22;25.90;99.90
10042;DHT22;5061;49.068;12.058;2023-06-10T15:29:43;25.80;99.90
10042;DHT22;5061;49.068;12.058;2023-06-10T15:33:04;25.60;99.90
10042;DHT22;5061;49.068;12.058;2023-06-10T15:36:27;25.50;99.90
10042;DHT22;5061;49.068;12.058;2023-06-10T15:39:48;25.40;99.90
10042;DHT22;5061;49.068;12.058;2023-06-10T15:43:13;25.20;99.90
10042;DHT22;5061;49.068;12.058;2023-06-10T15:46:34;25.10;99.90
10042;DHT22;5061;49.068;12.058;2023-06-10T15:49:55;25.00;99.90
10042;DHT22;5061;49.068;12.058;2023-06-10T15:53:17;24.80;99.90
10042;DHT22;5061;49.068;12.058;2023-06-10T15:56:38;24.50;99.90
10042;DHT22;5061;49.068;12.058;2023-06-10T16:00:00;24.20;99.90
10042;DHT22;5061;49.068;12.058;2023-06-10T16:03:21;24.00;99.90
10042;DHT22;5061;49.068;12.058;2023-06-10T16:06:42;23.80;99.90
10042;DHT22;5061;49.068;12.058;2023-06-10T16:10:03;23.70;99.90
10042;DHT22;5061;49.068;12.058;2023-06-10T16:13:24;23.60;99.90
10042;DHT22;5061;49.068;12.058;2023-06-10T16:16:45;23.50;99.90
10042;DHT22;5061;49.068;12.058;2023-06-10T16:20:07;23.50;99.90
10042;DHT22;5061;49.068;12.058;2023-06-10T16:23:29;23.40;99.90
10042;DHT22;5061;49.068;12.058;2023-06-10T16:26:50;23.40;99.90
10042;DHT22;5061;49.068;12.058;2023-06-10T16:30:12;23.30;99.90
10042;DHT22;5061;49.068;12.058;2023-06-10T16:33:35;23.20;99.90
10042;DHT22;5061;49.068;12.058;2023-06-10T16:36:57;23.10;99.90
10042;DHT22;5061;49.068;12.058;2023-06-10T16:40:18;23.10;99.90
10042;DHT22;5061;49.068;12.058;2023-06-10T16:43:39;23.00;99.90
10042;DHT22;5061;49.068;12.058;2023-06-10T16:47:00;23.00;99.90
10042;DHT22;5061;49.068;12.058;2023-06-10T16:50:22;23.00;99.90
10042;DHT22;5061;49.068;12.058;2023-06-10T16:53:43;23.00;99.90
10042;DHT22;5061;49.068;12.058;2023-06-10T16:57:05;22.90;99.90
10042;DHT22;5061;49.068;12.058;2023-06-10T17:00:26;22.90;99.90
10042;DHT22;5061;49.068;12.058;2023-06-10T17:03:47;22.90;99.90
10042;DHT22;5061;49.068;12.058;2023-06-10T17:07:08;22.90;99.90
10042;DHT22;5061;49.068;12.058;2023-06-10T17:10:29;22.90;99.90
10042;DHT22;5061;49.068;12.058;2023-06-10T17:13:50;22.90;99.90
10042;DHT22;5061;49.068;12.058;2023-06-10T17:17:11;23.00;99.90
10042;DHT22;5061;49.068;12.058;2023-06-10T17:20:33;22.90;99.90
10042;DHT22;5061;49.068;12.058;2023-06-10T17:23:54;22.90;99.90
10042;DHT22;5061;49.068;12.058;2023-06-10T17:27:15;22.90;99.90
10042;DHT22;5061;49.068;12.058;2023-06-10T17:30:36;22.90;99.90
10042;DHT22;5061;49.068;12.058;2023-06-10T17:33:57;22.80;99.90
10042;DHT22;5061;49.068;12.058;2023-06-10T17:37:18;22.70;99.90
10042;DHT22;5061;49.068;12.058;2023-06-10T17:40:39;22.70;99.90
10042;DHT22;5061;49.068;12.058;2023-06-10T17:44:00;22.60;99.90
10042;DHT22;5061;49.068;12.058;2023-06-10T17:47:21;22.40;99.90
10042;DHT22;5061;49.068;12.058;2023-06-10T17:50:42;22.30;99.90
10042;DHT22;5061;49.068;12.058;2023-06-10T17:54:04;22.20;99.90
10042;DHT22;5061;49.068;12.058;2023-06-10T17:57:27;22.10;99.90
10042;DHT22;5061;49.068;12.058;2023-06-10T18:00:51;21.90;99.90
10042;DHT22;5061;49.068;12.058;2023-06-10T18:04:12;21.80;99.90
10042;DHT22;5061;49.068;12.058;2023-06-10T18:07:33;21.60;99.90
10042;DHT22;5061;49.068;12.058;2023-06-10T18:10:54;21.60;99.90
10042;DHT22;5061;49.068;12.058;2023-06-10T18:14:15;21.50;99.90
10042;DHT22;5061;49.068;12.058;2023-06-10T18:17:36;21.40;99.90
10042;DHT22;5061;49.068;12.058;2023-06-10T18:20:58;21.30;99.90
10042;DHT22;5061;49.068;12.058;2023-06-10T18:24:20;21.20;99.90
10042;DHT22;5061;49.068;12.058;2023-06-10T18:27:41;21.20;99.90
10042;DHT22;5061;49.068;12.058;2023-06-10T18:31:02;21.10;99.90
10042;DHT22;5061;49.068;12.058;2023-06-10T18:34:23;21.10;99.90
10042;DHT22;5061;49.068;12.058;2023-06-10T18:37:44;21.00;99.90
10042;DHT22;5061;49.068;12.058;2023-06-10T18:41:05;20.90;99.90
10042;DHT22;5061;49.068;12.058;2023-06-10T18:44:26;20.90;99.90
10042;DHT22;5061;49.068;12.058;2023-06-10T18:47:47;20.80;99.90
10042;DHT22;5061;49.068;12.058;2023-06-10T18:51:11;20.70;99.90
10042;DHT22;5061;49.068;12.058;2023-06-10T18:54:33;20.60;99.90
10042;DHT22;5061;49.068;12.058;2023-06-10T18:57:55;20.60;99.90
10042;DHT22;5061;49.068;12.058;2023-06-10T19:01:17;20.50;99.90
10042;DHT22;5061;49.068;12.058;2023-06-10T19:04:38;20.50;99.90
10042;DHT22;5061;49.068;12.058;2023-06-10T19:08:02;20.40;99.90
10042;DHT22;5061;49.068;12.058;2023-06-10T19:11:23;20.30;99.90
10042;DHT22;5061;49.068;12.058;2023-06-10T19:14:45;20.30;99.90
10042;DHT22;5061;49.068;12.058;2023-06-10T19:18:07;20.20;99.90
10042;DHT22;5061;49.068;12.058;2023-06-10T19:21:31;20.10;99.90
10042;DHT22;5061;49.068;12.058;2023-06-10T19:25:06;20.00;99.90
10042;DHT22;5061;49.068;12.058;2023-06-10T19:28:27;20.00;99.90
10042;DHT22;5061;49.068;12.058;2023-06-10T19:31:48;19.90;99.90
10042;DHT22;5061;49.068;12.058;2023-06-10T19:35:09;19.80;99.90
10042;DHT22;5061;49.068;12.058;2023-06-10T19:38:30;19.70;99.90
10042;DHT22;5061;49.068;12.058;2023-06-10T19:41:51;19.70;99.90
10042;DHT22;5061;49.068;12.058;2023-06-10T19:45:12;19.70;99.90
10042;DHT22;5061;49.068;12.058;2023-06-10T19:48:33;19.60;99.90
10042;DHT22;5061;49.068;12.058;2023-06-10T19:51:53;19.60;99.90
10042;DHT22;5061;49.068;12.058;2023-06-10T19:55:14;19.50;99.90
10042;DHT22;5061;49.068;12.058;2023-06-10T19:58:35;19.50;99.90
10042;DHT22;5061;49.068;12.058;2023-06-10T20:01:55;19.40;99.90
10042;DHT22;5061;49.068;12.058;2023-06-10T20:05:16;19.40;99.90
10042;DHT22;5061;49.068;12.058;2023-06-10T20:08:37;19.40;99.90
10042;DHT22;5061;49.068;12.058;2023-06-10T20:12:01;19.40;99.90
10042;DHT22;5061;49.068;12.058;2023-06-10T20:15:22;19.40;99.90
10042;DHT22;5061;49.068;12.058;2023-06-10T20:18:43;19.30;99.90
10042;DHT22;5061;49.068;12.058;2023-06-10T20:22:05;19.30;99.90
10042;DHT22;5061;49.068;12.058;2023-06-10T20:25:26;19.30;99.90
10042;DHT22;5061;49.068;12.058;2023-06-10T20:28:47;19.30;99.90
10042;DHT22;5061;49.068;12.058;2023-06-10T20:32:07;19.30;99.90
10042;DHT22;5061;49.068;12.058;2023-06-10T20:35:30;19.20;99.90
10042;DHT22;5061;49.068;12.058;2023-06-10T20:38:53;19.20;99.90
10042;DHT22;5061;49.068;12.058;2023-06-10T20:42:14;19.20;99.90
10042;DHT22;5061;49.068;12.058;2023-06-10T20:45:35;19.10;99.90
10042;DHT22;5061;49.068;12.058;2023-06-10T20:48:56;19.20;99.90
10042;DHT22;5061;49.068;12.058;2023-06-10T20:52:18;19.10;99.90
10042;DHT22;5061;49.068;12.058;2023-06-10T20:55:39;19.10;99.90
10042;DHT22;5061;49.068;12.058;2023-06-10T20:59:00;19.10;99.90
10042;DHT22;5061;49.068;12.058;2023-06-10T21:02:21;19.10;99.90
10042;DHT22;5061;49.068;12.058;2023-06-10T21:05:42;19.10;99.90
10042;DHT22;5061;49.068;12.058;2023-06-10T21:09:06;19.10;99.90
10042;DHT22;5061;49.068;12.058;2023-06-10T21:12:27;19.10;99.90
10042;DHT22;5061;49.068;12.058;2023-06-10T21:15:48;19.10;99.90
10042;DHT22;5061;49.068;12.058;2023-06-10T21:19:09;19.00;99.90
10042;DHT22;5061;49.068;12.058;2023-06-10T21:22:30;19.00;99.90
10042;DHT22;5061;49.068;12.058;2023-06-10T21:25:51;19.00;99.90
10042;DHT22;5061;49.068;12.058;2023-06-10T21:29:12;19.00;99.90
10042;DHT22;5061;49.068;12.058;2023-06-10T21:32:33;19.00;99.90
10042;DHT22;5061;49.068;12.058;2023-06-10T21:35:55;19.00;99.90
10042;DHT22;5061;49.068;12.058;2023-06-10T21:39:16;18.90;99.90
10042;DHT22;5061;49.068;12.058;2023-06-10T21:42:38;19.00;99.90
10042;DHT22;5061;49.068;12.058;2023-06-10T21:45:59;19.00;99.90
10042;DHT22;5061;49.068;12.058;2023-06-10T21:49:20;18.90;99.90
10042;DHT22;5061;49.068;12.058;2023-06-10T21:52:41;19.00;99.90
10042;DHT22;5061;49.068;12.058;2023-06-10T21:56:02;19.00;99.90
10042;DHT22;5061;49.068;12.058;2023-06-10T21:59:23;18.90;99.90
10042;DHT22;5061;49.068;12.058;2023-06-10T22:02:44;18.90;99.90
10042;DHT22;5061;49.068;12.058;2023-06-10T22:06:05;18.90;99.90
10042;DHT22;5061;49.068;12.058;2023-06-10T22:09:27;18.90;99.90
10042;DHT22;5061;49.068;12.058;2023-06-10T22:12:48;18.90;99.90
10042;DHT22;5061;49.068;12.058;2023-06-10T22:16:09;18.90;99.90
10042;DHT22;5061;49.068;12.058;2023-06-10T22:19:31;18.80;99.90
10042;DHT22;5061;49.068;12.058;2023-06-10T22:22:53;18.90;99.90